Time;durP1;ratioP1;P1;durP2;ratioP2;P2;SDS_P1;SDS_P2;PMS_P1;PMS_P2;Temp;Humidity;BMP_temperature;BMP_pressure;BME280_temperature;BME280_humidity;BME280_pressure;Samples;Min_cycle;Max_cycle;Signal;HPM_P1;HPM_P2
2022/06/08 00:01:29;;;;;;;19.38;17.98;;;;;;;18.47;74.54;99812.00;4938913;28;98597;-94
2022/06/08 00:03:57;;;;;;;17.85;16.50;;;;;;;18.64;74.54;99835.50;4961970;28;101524;-93
2022/06/08 00:06:23;;;;;;;19.85;18.15;;;;;;;18.81;74.56;99860.00;4948605;28;96955;-92
2022/06/08 00:08:48;;;;;;;20.02;18.42;;;;;;;18.58;74.09;99809.38;4961040;28;96786;-93
2022/06/08 00:11:15;;;;;;;20.73;18.95;;;;;;;18.83;74.41;99850.97;4951754;28;99559;-93
2022/06/08 00:13:42;;;;;;;21.50;19.40;;;;;;;18.58;73.88;99795.25;4940556;28;101467;-94
2022/06/08 00:16:08;;;;;;;20.65;18.77;;;;;;;18.67;73.44;99807.84;4949363;28;97339;-95
2022/06/08 00:18:33;;;;;;;20.55;18.83;;;;;;;18.50;74.11;99806.44;4957360;28;97205;-91
2022/06/08 00:20:59;;;;;;;19.25;17.70;;;;;;;18.67;74.96;99845.91;4980020;28;98487;-91
2022/06/08 00:23:24;;;;;;;19.00;17.48;;;;;;;18.40;74.89;99814.28;4969148;28;97348;-90
2022/06/08 00:25:50;;;;;;;18.30;17.00;;;;;;;18.81;74.55;99852.03;4962125;28;96356;-91
2022/06/08 00:28:16;;;;;;;18.83;17.30;;;;;;;18.66;73.99;99809.66;4969388;28;96807;-94
2022/06/08 00:30:42;;;;;;;19.90;18.27;;;;;;;18.47;74.66;99796.94;4940111;28;100628;-94
2022/06/08 00:33:07;;;;;;;19.27;17.88;;;;;;;18.45;75.05;99822.75;4950638;28;100164;-93
2022/06/08 00:35:33;;;;;;;19.42;18.08;;;;;;;18.60;75.19;99847.34;4952665;28;95852;-92
2022/06/08 00:37:59;;;;;;;18.70;17.35;;;;;;;18.45;74.79;99820.09;4950099;28;96278;-94
2022/06/08 00:40:47;;;;;;;19.83;18.20;;;;;;;18.67;74.40;99832.59;4931045;28;100466;-95
2022/06/08 00:43:13;;;;;;;19.85;18.23;;;;;;;18.32;74.95;99798.03;4942228;28;101094;-94
2022/06/08 00:45:39;;;;;;;19.42;18.13;;;;;;;18.19;75.40;99789.31;4953847;28;97330;-91
2022/06/08 00:48:06;;;;;;;19.98;18.45;;;;;;;18.18;75.39;99766.34;4933512;28;96852;-93
2022/06/08 00:50:37;;;;;;;20.83;19.38;;;;;;;18.47;75.78;99828.81;4934283;28;101261;-92
2022/06/08 00:53:03;;;;;;;19.08;17.50;;;;;;;18.50;75.46;99823.28;4946354;28;99824;-94
2022/06/08 00:55:32;;;;;;;20.30;18.75;;;;;;;18.51;75.71;99832.91;4946935;28;97884;-93
2022/06/08 00:58:01;;;;;;;19.20;17.88;;;;;;;18.39;75.76;99798.47;4961353;28;96842;-93
2022/06/08 01:00:33;;;;;;;19.00;17.70;;;;;;;18.26;75.22;99790.53;4926349;28;100750;-94
2022/06/08 01:02:59;;;;;;;19.25;17.95;;;;;;;18.44;75.30;99809.56;4925361;28;101226;-96
2022/06/08 01:05:46;;;;;;;20.13;18.73;;;;;;;18.55;74.06;99798.97;4933766;28;96832;-91
2022/06/08 01:08:20;;;;;;;19.37;17.97;;;;;;;18.69;74.32;99829.84;4946549;28;97791;-93
2022/06/08 01:10:48;;;;;;;20.58;18.52;;;;;;;18.55;74.91;99829.06;4957984;28;99733;-94
2022/06/08 01:13:17;;;;;;;19.55;17.83;;;;;;;18.47;75.27;99838.56;4948403;28;101959;-92
2022/06/08 01:15:43;;;;;;;19.70;18.20;;;;;;;18.46;75.39;99823.59;4923982;28;96921;-93
2022/06/08 01:18:13;;;;;;;20.20;18.38;;;;;;;18.45;74.89;99821.91;4940886;28;96940;-92
2022/06/08 01:20:51;;;;;;;19.95;18.45;;;;;;;18.42;74.88;99800.88;4923803;28;101020;-94
2022/06/08 01:23:21;;;;;;;19.77;18.27;;;;;;;18.50;75.16;99819.75;4937586;28;101661;-93
2022/06/08 01:26:05;;;;;;;20.73;19.27;;;;;;;18.34;75.79;99804.09;4938081;28;97956;-93
2022/06/08 01:28:43;;;;;;;20.55;19.15;;;;;;;18.58;74.89;99814.69;4961358;28;96972;-92
2022/06/08 01:31:22;;;;;;;20.48;19.08;;;;;;;18.51;75.42;99810.81;4949749;28;100966;-94
2022/06/08 01:34:08;;;;;;;19.55;18.20;;;;;;;18.58;74.99;99813.84;4940185;28;99675;-94
2022/06/08 01:36:56;;;;;;;19.67;17.83;;;;;;;18.53;74.90;99808.91;4951538;28;97049;-94
2022/06/08 01:39:35;;;;;;;20.50;18.80;;;;;;;18.64;74.56;99816.03;4959126;28;97040;-93
2022/06/08 01:42:37;;;;;;;20.35;18.75;;;;;;;18.53;74.79;99808.91;4945418;28;98910;-95
2022/06/08 01:45:29;;;;;;;20.52;18.98;;;;;;;18.41;75.01;99788.53;4859065;28;101453;-91
2022/06/08 01:48:10;;;;;;;20.52;19.02;;;;;;;18.51;74.95;99810.81;4925354;28;96697;-94
2022/06/08 01:50:40;;;;;;;;;;;;;;;18.45;75.17;99806.81;4963037;28;97334;-94
2022/06/08 01:53:27;;;;;;;20.88;19.38;;;;;;;18.39;75.09;99809.09;4935881;28;100657;-95
2022/06/08 01:56:10;;;;;;;20.27;18.77;;;;;;;18.41;75.46;99805.31;4924502;28;101517;-95
2022/06/08 01:58:40;;;;;;;20.60;19.05;;;;;;;18.45;75.01;99806.81;4927434;28;97316;-92
2022/06/08 02:01:15;;;;;;;20.95;19.45;;;;;;;18.32;75.44;99812.22;4943181;28;96919;-94
2022/06/08 02:03:51;;;;;;;19.52;18.10;;;;;;;18.41;74.95;99804.47;4946335;28;100212;-92
2022/06/08 02:06:23;;;;;;;20.52;18.88;;;;;;;18.37;75.16;99822.47;4967077;28;101373;-91
2022/06/08 02:09:00;;;;;;;20.50;18.90;;;;;;;18.42;75.09;99815.00;4942103;28;96860;-93
2022/06/08 02:11:35;;;;;;;21.20;19.70;;;;;;;18.40;75.35;99819.59;4964004;28;97151;-92
2022/06/08 02:14:29;;;;;;;21.55;19.88;;;;;;;18.44;75.04;99806.91;4930676;28;101450;-91
2022/06/08 02:17:26;;;;;;;21.13;19.33;;;;;;;18.37;75.34;99808.34;4924856;28;100779;-94
2022/06/08 02:19:55;;;;;;;20.92;19.33;;;;;;;18.46;74.99;99805.00;4956090;28;98006;-94
2022/06/08 02:22:29;;;;;;;21.58;19.42;;;;;;;18.50;74.68;99799.34;4925416;28;97149;-93
2022/06/08 02:25:02;;;;;;;21.30;19.55;;;;;;;18.55;74.46;99804.31;4925880;28;101315;-92
2022/06/08 02:27:35;;;;;;;19.88;18.38;;;;;;;18.49;74.88;99805.59;4921174;28;101976;-91
2022/06/08 02:30:14;;;;;;;19.50;18.00;;;;;;;18.44;74.72;99788.31;4944241;28;96931;-92
2022/06/08 02:35:41;;;;;;;19.52;18.17;;;;;;;18.55;74.47;99802.47;4960407;28;101145;-95
2022/06/08 02:38:11;;;;;;;22.10;20.17;;;;;;;18.49;74.78;99802.09;4928440;28;101557;-95
2022/06/08 02:40:41;;;;;;;20.40;18.80;;;;;;;18.47;75.05;99796.94;4943660;28;97378;-94
2022/06/08 02:43:12;;;;;;;20.98;19.35;;;;;;;18.29;74.84;99766.41;4933060;28;97149;-93
2022/06/08 02:45:42;;;;;;;21.05;19.60;;;;;;;18.44;75.10;99797.16;4928139;28;101360;-92
2022/06/08 02:48:14;;;;;;;20.52;18.98;;;;;;;18.32;75.44;99788.28;4929613;28;99802;-92
2022/06/08 02:50:57;;;;;;;20.05;18.52;;;;;;;18.37;74.97;99782.63;4935356;28;97273;-91
2022/06/08 02:53:28;;;;;;;21.15;19.65;;;;;;;18.43;75.26;99800.75;4940759;28;96785;-94
2022/06/08 02:56:13;;;;;;;21.85;19.90;;;;;;;18.53;74.92;99801.78;4943194;28;100433;-96
2022/06/08 02:58:46;;;;;;;21.40;19.67;;;;;;;18.51;74.77;99794.88;4934443;28;100554;-92
2022/06/08 03:01:23;;;;;;;21.30;19.35;;;;;;;18.53;74.84;99803.59;4935258;28;97939;-94
2022/06/08 03:03:52;;;;;;;22.90;21.00;;;;;;;18.38;75.13;99794.09;4944533;28;97294;-93
2022/06/08 03:06:25;;;;;;;21.85;20.13;;;;;;;18.37;75.53;99792.41;4952228;28;101889;-91
2022/06/08 03:09:02;;;;;;;22.63;20.83;;;;;;;18.26;76.03;99799.34;4935993;28;101281;-94
2022/06/08 03:11:41;;;;;;;23.30;21.30;;;;;;;18.21;76.16;99796.22;4930707;28;97448;-91
2022/06/08 03:14:12;;;;;;;23.05;21.23;;;;;;;17.97;76.33;99772.28;4941487;28;97331;-91
2022/06/08 03:16:39;;;;;;;;;;;;;;;18.30;76.00;99807.97;4927629;28;101371;-94
2022/06/08 03:19:09;;;;;;;22.30;20.42;;;;;;;18.28;75.84;99801.91;4947154;28;100024;-94
2022/06/08 03:21:36;;;;;;;22.88;21.08;;;;;;;18.28;76.21;99804.56;4954940;28;96755;-93
2022/06/08 03:24:04;;;;;;;22.10;20.30;;;;;;;18.18;75.75;99777.84;4942815;28;97202;-94
2022/06/08 03:26:45;;;;;;;22.48;20.83;;;;;;;18.24;75.65;99793.31;4926429;28;100751;-92
2022/06/08 03:29:13;;;;;;;20.38;18.80;;;;;;;18.49;75.37;99808.25;4936785;28;101927;-93
2022/06/08 03:31:39;;;;;;;20.73;19.05;;;;;;;18.58;74.98;99814.69;4928933;28;97727;-93
2022/06/08 03:34:05;;;;;;;20.85;19.13;;;;;;;18.57;74.76;99805.03;4947990;28;97069;-91
2022/06/08 03:36:31;;;;;;;21.45;19.40;;;;;;;18.65;74.68;99810.63;4945631;28;100601;-91
2022/06/08 03:38:58;;;;;;;21.27;19.77;;;;;;;18.78;74.29;99815.88;4951858;28;99736;-94
2022/06/08 03:41:23;;;;;;;20.77;19.27;;;;;;;18.77;74.38;99812.38;4952449;28;96774;-93
2022/06/08 03:43:49;;;;;;;21.73;20.13;;;;;;;18.80;74.12;99807.81;4944092;28;96702;-94
2022/06/08 03:46:18;;;;;;;21.30;19.80;;;;;;;18.76;74.37;99799.19;4958052;28;100330;-92
2022/06/08 03:48:45;;;;;;;21.48;19.77;;;;;;;18.83;74.15;99811.06;4943619;28;101221;-93
2022/06/08 03:51:12;;;;;;;20.30;18.60;;;;;;;18.74;74.23;99799.31;4950831;28;97228;-92
2022/06/08 03:53:44;;;;;;;20.15;18.65;;;;;;;18.87;74.18;99809.03;4929054;28;96987;-93
2022/06/08 03:56:10;;;;;;;20.15;18.65;;;;;;;18.53;73.81;99753.94;4965167;28;96811;-93
2022/06/08 03:58:36;;;;;;;19.45;17.75;;;;;;;18.89;73.98;99825.72;4941139;28;97402;-91
2022/06/08 04:01:07;;;;;;;18.98;17.58;;;;;;;18.93;73.50;99820.03;4939349;28;97157;-93
2022/06/08 04:03:33;;;;;;;19.92;18.38;;;;;;;18.81;73.57;99796.19;4953978;28;97147;-96
2022/06/08 04:06:00;;;;;;;18.90;17.60;;;;;;;18.94;73.72;99816.41;4937830;28;101140;-93
2022/06/08 04:08:31;;;;;;;;;;;;;;;18.87;73.91;99825.81;4928562;28;99820;-93
2022/06/08 04:10:58;;;;;;;19.20;17.55;;;;;;;18.94;73.80;99820.91;4925464;28;96876;-94
2022/06/08 04:13:23;;;;;;;19.17;17.40;;;;;;;18.71;73.60;99775.59;4942354;28;96848;-94
2022/06/08 04:15:55;;;;;;;20.90;19.10;;;;;;;18.79;73.30;99790.97;4943460;28;101179;-95
2022/06/08 04:18:28;;;;;;;19.00;17.45;;;;;;;19.02;73.38;99821.13;4944797;28;101304;-93
2022/06/08 04:21:00;;;;;;;18.33;16.92;;;;;;;18.69;73.00;99748.28;4939762;28;97201;-94
2022/06/08 04:23:36;;;;;;;19.35;17.88;;;;;;;18.99;72.75;99800.09;4947988;28;97059;-95
2022/06/08 04:26:02;;;;;;;19.45;17.70;;;;;;;18.75;72.98;99770.94;4943927;28;101189;-94
2022/06/08 04:28:28;;;;;;;18.85;17.25;;;;;;;18.64;73.01;99769.03;4938109;28;100162;-92
2022/06/08 04:30:59;;;;;;;;;;;;;;;18.98;72.99;99811.72;4934976;28;96787;-92
2022/06/08 04:33:25;;;;;;;18.65;16.98;;;;;;;19.04;72.54;99823.69;4939076;28;98165;-92
2022/06/08 04:35:51;;;;;;;18.98;17.50;;;;;;;18.68;72.50;99754.56;4930997;28;100881;-93
2022/06/08 04:38:19;;;;;;;18.20;16.90;;;;;;;18.78;72.13;99741.44;4940942;28;101620;-92
2022/06/08 04:40:46;;;;;;;20.23;18.35;;;;;;;19.08;72.13;99778.13;4954651;28;97080;-93
2022/06/08 04:43:13;;;;;;;18.92;17.55;;;;;;;19.11;72.25;99787.66;4934959;28;98157;-93
2022/06/08 04:45:40;;;;;;;18.45;16.90;;;;;;;18.89;72.01;99754.75;4928188;28;101484;-91
2022/06/08 04:48:11;;;;;;;17.38;16.10;;;;;;;19.09;72.18;99790.44;4935105;28;99236;-94
2022/06/08 04:50:38;;;;;;;18.48;16.98;;;;;;;19.05;71.92;99770.34;4940733;28;96930;-93
2022/06/08 04:53:04;;;;;;;18.40;16.90;;;;;;;19.14;71.77;99782.09;4945643;28;97190;-95
2022/06/08 04:55:34;;;;;;;19.48;17.55;;;;;;;19.33;71.93;99818.75;4942811;28;100063;-94
2022/06/08 04:58:01;;;;;;;19.27;17.65;;;;;;;19.04;71.73;99751.88;4930802;28;101024;-92
2022/06/08 05:00:30;;;;;;;19.55;17.95;;;;;;;19.55;71.45;99818.78;4933726;23;97178;-95
2022/06/08 05:03:00;;;;;;;19.00;17.50;;;;;;;19.45;71.76;99821.28;4934366;28;97032;-93
2022/06/08 05:05:36;;;;;;;21.17;19.40;;;;;;;19.58;71.14;99815.03;4945055;28;101455;-93
2022/06/08 05:08:06;;;;;;;18.42;16.88;;;;;;;19.66;70.85;99809.94;4941580;28;98958;-94
2022/06/08 05:10:36;;;;;;;19.27;17.25;;;;;;;19.85;70.56;99807.50;4942227;28;97865;-93
2022/06/08 05:13:04;;;;;;;17.88;16.58;;;;;;;19.72;70.21;99774.00;4936041;28;97318;-93
2022/06/08 05:15:33;;;;;;;17.35;15.75;;;;;;;20.09;69.80;99814.47;4930760;28;101095;-87
2022/06/08 05:18:01;;;;;;;18.23;16.58;;;;;;;20.13;69.07;99808.78;4939016;28;101285;-90
2022/06/08 05:20:28;;;;;;;18.63;17.10;;;;;;;20.20;68.67;99798.44;4963932;28;97512;-91
2022/06/08 05:22:54;;;;;;;18.08;16.50;;;;;;;20.35;68.40;99799.00;4938044;28;96792;-92
2022/06/08 05:25:25;;;;;;;18.75;17.35;;;;;;;20.26;68.02;99789.09;4947340;28;101814;-87
2022/06/08 05:27:52;;;;;;;18.88;17.08;;;;;;;20.60;67.86;99805.84;4923299;28;101199;-88
2022/06/08 05:30:19;;;;;;;17.67;16.15;;;;;;;20.72;67.40;99795.97;4939537;28;97271;-88
2022/06/08 05:32:45;;;;;;;18.17;16.75;;;;;;;20.84;67.03;99807.41;4945057;28;97112;-88
2022/06/08 05:35:11;;;;;;;18.15;16.45;;;;;;;20.96;66.77;99804.53;4947208;28;97440;-86
2022/06/08 05:37:37;;;;;;;18.55;16.77;;;;;;;21.24;66.35;99808.34;4924510;28;101256;-87
2022/06/08 05:40:07;;;;;;;18.13;16.70;;;;;;;21.55;65.40;99818.19;4925437;28;97395;-89
2022/06/08 05:42:33;;;;;;;17.98;16.38;;;;;;;21.66;64.43;99808.25;4950858;28;96953;-90
2022/06/08 05:45:00;;;;;;;17.60;15.88;;;;;;;21.91;63.61;99803.41;4949973;28;100145;-88
2022/06/08 05:47:27;;;;;;;17.70;16.30;;;;;;;22.31;62.65;99790.00;4932327;28;101859;-91
2022/06/08 05:49:54;;;;;;;18.83;17.17;;;;;;;22.87;60.35;99785.72;4924228;28;98030;-87
2022/06/08 05:52:20;;;;;;;18.10;16.77;;;;;;;23.81;59.29;99766.09;4962677;28;97283;-87
2022/06/08 05:54:47;;;;;;;17.63;16.33;;;;;;;24.68;57.06;99794.09;4941232;28;100620;-87
2022/06/08 05:57:14;;;;;;;17.25;16.02;;;;;;;25.27;54.52;99789.81;4949692;28;100160;-86
2022/06/08 05:59:41;;;;;;;17.67;16.17;;;;;;;26.27;51.14;99796.25;4928476;28;96868;-88
2022/06/08 06:02:11;;;;;;;17.20;15.65;;;;;;;26.52;49.42;99785.50;4923782;28;97269;-87
2022/06/08 06:04:37;;;;;;;16.92;15.60;;;;;;;27.13;49.00;99776.00;4937277;28;101713;-89
2022/06/08 06:07:03;;;;;;;16.48;15.25;;;;;;;27.65;48.03;99774.69;4922168;28;100298;-86
2022/06/08 06:09:29;;;;;;;15.63;14.55;;;;;;;27.97;47.33;99779.94;4944626;28;96762;-87
2022/06/08 06:11:55;;;;;;;16.67;15.32;;;;;;;27.87;47.01;99787.41;4966575;28;97272;-88
2022/06/08 06:14:24;;;;;;;16.65;14.90;;;;;;;27.38;47.57;99770.59;4940917;28;101655;-86
2022/06/08 06:16:52;;;;;;;16.17;14.73;;;;;;;27.58;46.56;99773.69;4952347;28;101805;-87
2022/06/08 06:19:18;;;;;;;15.18;14.18;;;;;;;27.75;47.00;99759.97;4935026;28;96928;-87
2022/06/08 06:22:13;;;;;;;16.77;14.30;;;;;;;28.75;45.12;99774.50;4885656;28;96963;-85
2022/06/08 06:25:07;;;;;;;17.85;14.63;;;;;;;29.36;42.54;99777.91;4944805;28;97665;-86
2022/06/08 06:27:49;;;;;;;16.17;14.90;;;;;;;29.77;42.57;99770.16;4938573;28;101643;-88
2022/06/08 06:30:37;;;;;;;16.33;15.07;;;;;;;30.17;41.18;99764.34;4958223;28;97277;-87
2022/06/08 06:33:18;;;;;;;16.60;15.27;;;;;;;29.40;42.08;99775.69;4940778;28;97096;-85
2022/06/08 06:35:47;;;;;;;16.25;15.00;;;;;;;28.32;42.33;99774.97;4922996;28;101483;-87
2022/06/08 06:38:13;;;;;;;16.65;15.20;;;;;;;28.73;41.66;99776.53;4917702;28;100928;-86
2022/06/08 06:40:38;;;;;;;16.52;15.30;;;;;;;29.00;41.10;99785.88;4935870;28;97332;-84
2022/06/08 06:43:06;;;;;;;15.80;14.65;;;;;;;28.98;40.75;99780.66;4957836;28;97039;-82
2022/06/08 06:45:40;;;;;;;15.77;14.45;;;;;;;30.50;38.92;99777.38;4936746;28;97747;-83
2022/06/08 06:48:36;;;;;;;15.63;14.35;;;;;;;31.07;38.09;99765.56;4932914;28;97868;-86
2022/06/08 06:51:04;;;;;;;15.88;14.75;;;;;;;31.68;37.01;99779.25;4935879;28;97151;-83
2022/06/08 06:53:30;;;;;;;15.45;14.23;;;;;;;30.83;36.58;99773.09;4935613;28;97364;-85
2022/06/08 06:55:57;;;;;;;16.00;14.85;;;;;;;30.73;36.75;99769.03;4933218;28;102008;-85
2022/06/08 06:58:49;;;;;;;15.20;14.13;;;;;;;30.71;37.33;99765.69;4951322;28;99320;-86
2022/06/08 07:01:16;;;;;;;14.48;13.27;;;;;;;30.91;36.52;99755.88;4935663;28;98134;-88
2022/06/08 07:03:43;;;;;;;16.27;14.85;;;;;;;31.23;33.98;99765.22;4937304;28;97209;-87
2022/06/08 07:06:09;;;;;;;15.20;14.10;;;;;;;32.82;33.13;99764.03;4938451;28;101468;-87
2022/06/08 07:08:35;;;;;;;14.75;13.68;;;;;;;33.60;30.87;99753.22;4926552;28;101214;-86
2022/06/08 07:13:49;;;;;;;14.73;13.73;;;;;;;32.96;32.27;99767.56;4953021;28;96925;-93
2022/06/08 07:16:15;;;;;;;14.10;13.05;;;;;;;32.53;31.18;99752.56;4931659;28;98950;-92
2022/06/08 07:18:41;;;;;;;14.80;13.90;;;;;;;32.89;32.14;99714.06;4943575;28;101505;-94
2022/06/08 07:21:06;;;;;;;15.38;13.73;;;;;;;33.77;31.53;99738.06;4940707;28;96800;-91
2022/06/08 07:23:33;;;;;;;14.82;13.80;;;;;;;34.57;31.13;99737.56;4934256;28;97404;-87
2022/06/08 07:25:58;;;;;;;15.00;13.68;;;;;;;35.02;30.90;99748.22;4942202;28;101293;-84
2022/06/08 07:28:24;;;;;;;16.13;14.60;;;;;;;35.39;30.21;99734.63;4924216;28;101793;-89
2022/06/08 07:30:49;;;;;;;15.55;14.30;;;;;;;35.53;29.71;99729.84;4916038;28;97078;-83
2022/06/08 07:33:15;;;;;;;14.82;13.82;;;;;;;34.80;29.79;99717.84;4933823;28;97441;-88
2022/06/08 07:35:40;;;;;;;16.08;14.77;;;;;;;34.97;29.39;99737.19;4979599;28;101527;-85
2022/06/08 07:38:06;;;;;;;15.70;14.40;;;;;;;34.07;31.39;99744.84;4975608;28;97971;-92
2022/06/08 07:40:31;;;;;;;15.65;14.50;;;;;;;34.51;31.97;99745.78;4924282;28;97679;-86
2022/06/08 07:42:57;;;;;;;15.05;14.00;;;;;;;35.18;30.44;99743.28;4959355;28;97309;-89
2022/06/08 07:45:23;;;;;;;14.68;13.55;;;;;;;35.04;31.48;99745.28;4951346;28;102100;-88
2022/06/08 07:50:32;;;;;;;15.85;14.60;;;;;;;34.66;31.33;99735.38;4939167;28;97848;-84
2022/06/08 07:52:58;;;;;;;15.30;13.82;;;;;;;34.21;31.45;99722.75;4971343;28;97340;-83
2022/06/08 07:55:23;;;;;;;14.85;13.70;;;;;;;33.32;31.81;99737.19;4941031;28;100828;-84
2022/06/08 07:57:50;;;;;;;14.45;13.43;;;;;;;32.84;32.54;99734.75;4938791;28;100621;-84
2022/06/08 08:00:17;;;;;;;14.80;13.70;;;;;;;31.87;33.59;99717.94;4955911;28;98260;-83
2022/06/08 08:02:42;;;;;;;15.52;14.38;;;;;;;31.62;34.01;99731.25;4954370;28;97645;-83
2022/06/08 08:05:11;;;;;;;16.60;15.20;;;;;;;32.21;33.72;99727.03;4955242;28;97913;-83
2022/06/08 08:07:38;;;;;;;14.95;13.85;;;;;;;32.57;34.14;99728.53;4941574;28;101240;-81
2022/06/08 08:10:04;;;;;;;15.45;14.25;;;;;;;32.44;34.05;99715.75;4945221;28;97687;-85
2022/06/08 08:12:29;;;;;;;14.85;13.85;;;;;;;32.01;34.33;99718.84;4960079;28;96867;-85
2022/06/08 08:14:55;;;;;;;15.65;14.30;;;;;;;32.44;34.90;99723.91;4946574;28;98125;-82
2022/06/08 08:17:20;;;;;;;16.42;15.23;;;;;;;32.51;33.53;99716.63;4947425;28;98453;-82
2022/06/08 08:19:46;;;;;;;14.65;13.70;;;;;;;31.89;34.63;99726.72;4938914;28;97229;-82
2022/06/08 08:22:14;;;;;;;16.60;15.48;;;;;;;30.98;35.85;99728.81;4949602;28;96812;-90
2022/06/08 08:24:40;;;;;;;17.38;15.63;;;;;;;30.88;35.78;99724.59;4972231;28;97819;-88
2022/06/08 08:27:05;;;;;;;17.05;15.60;;;;;;;31.31;35.12;99701.91;4940847;28;101478;-89
2022/06/08 08:29:31;;;;;;;16.85;15.55;;;;;;;31.11;36.31;99726.19;4926661;28;97187;-86
2022/06/08 08:31:57;;;;;;;17.42;16.20;;;;;;;30.97;35.39;99710.88;4939201;28;97376;-89
2022/06/08 08:34:22;;;;;;;17.60;16.05;;;;;;;30.94;35.78;99712.13;4939965;28;98614;-83
2022/06/08 08:36:48;;;;;;;16.05;14.70;;;;;;;30.43;36.70;99715.91;4962410;28;98465;-78
2022/06/08 08:39:15;;;;;;;17.30;16.00;;;;;;;30.08;36.66;99730.31;4944490;28;97282;-82
2022/06/08 08:44:41;;;;;;;17.08;15.45;;;;;;;29.48;37.55;99721.50;4941561;28;101488;-78
2022/06/08 08:47:25;;;;;;;16.75;15.55;;;;;;;29.13;37.80;99740.19;4959840;28;97836;-89
2022/06/08 08:49:58;;;;;;;15.10;14.00;;;;;;;28.75;37.77;99734.81;4953524;28;97818;-91
2022/06/08 08:52:29;;;;;;;16.58;15.48;;;;;;;28.91;37.55;99723.00;4957093;28;96892;-90
2022/06/08 08:55:23;;;;;;;15.77;14.57;;;;;;;28.29;38.41;99670.09;4938006;28;101181;-90
2022/06/08 08:57:56;;;;;;;15.07;13.95;;;;;;;28.33;38.55;99701.13;4937320;28;101282;-89
2022/06/08 09:00:38;;;;;;;16.10;15.10;;;;;;;28.40;38.22;99720.09;4927992;28;97695;-94
2022/06/08 09:03:25;;;;;;;16.23;14.73;;;;;;;28.08;38.56;99718.50;4939781;28;98125;-91
2022/06/08 09:05:56;;;;;;;14.75;13.75;;;;;;;27.74;38.94;99714.31;4957377;28;99726;-88
2022/06/08 09:08:23;;;;;;;15.43;14.32;;;;;;;27.97;39.74;99714.38;4961943;28;98170;-86
2022/06/08 09:10:50;;;;;;;14.80;13.90;;;;;;;28.31;38.68;99713.94;4935774;28;96670;-88
2022/06/08 09:13:23;;;;;;;14.77;13.82;;;;;;;28.18;38.00;99721.78;4956493;28;97160;-87
2022/06/08 09:15:56;;;;;;;14.25;13.30;;;;;;;28.03;38.49;99712.81;4928252;28;101772;-89
2022/06/08 09:18:36;;;;;;;14.27;13.18;;;;;;;27.72;38.09;99705.56;4943054;28;101001;-88
2022/06/08 09:21:20;;;;;;;;;;;;;;;27.10;39.06;99723.31;4946064;28;97157;-87
2022/06/08 09:23:50;;;;;;;14.20;13.30;;;;;;;27.18;39.63;99713.59;4969062;28;97595;-87
2022/06/08 09:26:28;;;;;;;14.60;13.60;;;;;;;27.02;39.45;99723.38;4933710;28;100888;-88
2022/06/08 09:29:09;;;;;;;14.93;14.02;;;;;;;26.61;38.97;99672.28;4941259;28;102032;-88
2022/06/08 09:31:35;;;;;;;14.55;13.40;;;;;;;26.18;40.09;99665.44;4958192;28;96792;-89
2022/06/08 09:34:07;;;;;;;14.60;13.50;;;;;;;26.40;40.46;99718.53;4925312;28;96881;-88
2022/06/08 09:36:33;;;;;;;14.05;13.00;;;;;;;26.38;40.67;99720.59;4940782;28;101266;-91
2022/06/08 09:38:58;;;;;;;14.95;13.60;;;;;;;26.36;40.32;99714.53;4941245;28;99927;-88
2022/06/08 09:41:38;;;;;;;14.68;13.50;;;;;;;26.33;39.99;99714.03;4955756;28;97140;-87
2022/06/08 09:44:15;;;;;;;13.95;12.70;;;;;;;26.56;39.50;99711.53;4928062;28;97348;-88
2022/06/08 09:52:55;;;;;;;13.57;12.57;;;;;;;26.26;39.65;99699.56;4962561;28;97247;-89
2022/06/08 09:55:44;;;;;;;13.63;12.73;;;;;;;25.99;40.71;99706.09;4970462;28;97359;-88
2022/06/08 09:58:37;;;;;;;13.98;12.93;;;;;;;25.90;40.44;99692.66;4947857;28;100375;-87
2022/06/08 10:01:37;;;;;;;14.75;13.75;;;;;;;26.12;40.43;99693.00;4962173;28;97946;-87
2022/06/08 10:04:20;;;;;;;13.85;12.85;;;;;;;26.15;40.86;99695.34;4921454;28;97146;-89
2022/06/08 10:06:46;;;;;;;13.98;12.90;;;;;;;25.97;40.17;99700.88;4942268;28;97276;-87
2022/06/08 10:09:50;;;;;;;13.93;12.70;;;;;;;25.99;41.29;99693.50;4949370;28;101442;-90
2022/06/08 10:12:28;;;;;;;15.00;13.65;;;;;;;26.05;41.89;99692.81;4922610;28;98293;-88
2022/06/08 10:14:56;;;;;;;14.63;13.63;;;;;;;25.72;43.51;99689.25;4956108;28;96834;-87
2022/06/08 10:17:27;;;;;;;14.90;13.88;;;;;;;25.12;43.66;99671.38;4947677;28;97044;-87
2022/06/08 10:20:04;;;;;;;14.02;13.02;;;;;;;24.89;44.08;99697.09;4940226;28;101998;-87
2022/06/08 10:22:58;;;;;;;14.48;13.57;;;;;;;24.81;44.60;99679.97;4946499;28;99980;-89
2022/06/08 10:25:44;;;;;;;13.70;12.70;;;;;;;24.80;44.40;99667.53;4934746;28;98148;-90
2022/06/08 10:28:18;;;;;;;13.18;12.35;;;;;;;25.15;44.00;99681.00;4947524;28;97567;-90
2022/06/08 10:30:54;;;;;;;14.40;13.15;;;;;;;25.21;43.71;99674.97;4940081;28;101505;-87
2022/06/08 10:33:34;;;;;;;14.23;13.07;;;;;;;25.46;43.05;99681.28;4946755;28;100204;-90
2022/06/08 10:36:00;;;;;;;13.18;12.38;;;;;;;25.42;41.92;99678.06;4953445;28;96900;-90
2022/06/08 10:38:26;;;;;;;13.38;12.38;;;;;;;25.47;42.07;99677.56;4944141;28;97305;-90
2022/06/08 10:41:03;;;;;;;13.88;12.98;;;;;;;25.42;41.06;99677.22;4941205;28;101245;-89
2022/06/08 10:43:31;;;;;;;13.38;12.48;;;;;;;25.61;41.82;99660.81;4935172;28;100304;-92
2022/06/08 10:46:04;;;;;;;13.23;12.32;;;;;;;25.89;40.22;99679.34;4956911;28;97190;-88
2022/06/08 10:48:44;;;;;;;13.38;12.48;;;;;;;25.90;39.45;99668.44;4948633;28;97440;-89
2022/06/08 10:51:32;;;;;;;12.43;11.60;;;;;;;25.75;39.48;99665.56;4931523;28;101158;-88
2022/06/08 10:56:42;;;;;;;12.98;12.00;;;;;;;25.75;39.62;99670.09;4966710;28;97134;-90
2022/06/08 10:59:14;;;;;;;13.30;12.40;;;;;;;25.88;39.38;99665.09;4973230;28;97449;-93
2022/06/08 11:01:40;;;;;;;12.82;11.85;;;;;;;26.14;39.03;99675.69;4925211;28;100909;-93
2022/06/08 11:04:32;;;;;;;12.02;11.23;;;;;;;26.17;39.11;99661.91;4941543;28;100290;-90
2022/06/08 11:07:17;;;;;;;12.40;11.63;;;;;;;26.34;36.76;99669.97;4957076;28;97062;-91
2022/06/08 11:09:48;;;;;;;12.40;11.18;;;;;;;26.06;37.45;99645.25;4952014;28;97124;-88
2022/06/08 11:12:14;;;;;;;11.52;10.80;;;;;;;26.05;38.24;99659.72;4944430;28;100346;-88
2022/06/08 11:14:48;;;;;;;12.48;11.68;;;;;;;26.19;38.21;99664.44;4940493;28;100563;-93
2022/06/08 11:17:28;;;;;;;12.80;11.80;;;;;;;26.41;37.07;99658.38;4951749;28;97261;-92
2022/06/08 11:20:11;;;;;;;12.50;11.73;;;;;;;26.26;37.18;99656.50;4948958;28;97340;-91
2022/06/08 11:22:41;;;;;;;12.65;11.60;;;;;;;26.37;37.22;99653.47;4964095;28;100188;-84
2022/06/08 11:25:12;;;;;;;12.15;11.45;;;;;;;26.29;36.30;99653.50;4955639;28;100006;-87
2022/06/08 11:27:39;;;;;;;13.18;12.20;;;;;;;26.16;36.71;99656.69;4956306;28;96680;-85
2022/06/08 11:30:23;;;;;;;12.63;11.82;;;;;;;26.28;36.86;99663.41;4948986;28;96050;-90
2022/06/08 11:32:52;;;;;;;12.68;11.77;;;;;;;26.22;36.76;99655.19;4959727;28;99613;-86
2022/06/08 11:35:36;;;;;;;12.20;11.38;;;;;;;26.19;36.69;99649.13;4968095;28;99975;-85
2022/06/08 11:38:01;;;;;;;12.38;11.68;;;;;;;26.26;37.42;99648.44;4997309;28;96671;-85
2022/06/08 11:40:33;;;;;;;12.27;11.45;;;;;;;26.13;37.21;99654.34;4953928;28;96856;-89
2022/06/08 11:43:07;;;;;;;12.40;11.60;;;;;;;25.62;37.27;99595.31;4944920;28;98150;-93
2022/06/08 11:45:53;;;;;;;12.85;11.85;;;;;;;26.07;37.96;99633.50;4959845;28;97679;-93
2022/06/08 11:48:30;;;;;;;12.23;11.23;;;;;;;26.25;37.67;99649.47;4949424;28;96891;-93
2022/06/08 11:51:02;;;;;;;11.68;10.77;;;;;;;26.29;36.61;99648.94;4942673;28;96900;-88
2022/06/08 11:53:33;;;;;;;11.50;10.80;;;;;;;26.48;37.45;99638.84;4934777;28;100393;-91
2022/06/08 11:56:28;;;;;;;11.65;10.75;;;;;;;26.40;37.83;99596.63;4930981;28;99379;-92
2022/06/08 11:58:56;;;;;;;12.20;11.30;;;;;;;26.74;37.10;99638.66;4936543;28;97335;-90